createdAt,value
2024-05-09T00:01:32.348Z,93438.00
2024-05-09T00:02:32.378Z,93437.00
2024-05-09T00:03:32.373Z,93433.00
2024-05-09T00:04:32.334Z,93436.00
2024-05-09T00:05:32.409Z,93434.00
2024-05-09T00:06:32.306Z,93434.00
2024-05-09T00:07:32.321Z,93435.00
2024-05-09T00:08:32.558Z,93435.00
2024-05-09T00:09:32.327Z,93433.00
2024-05-09T00:10:37.224Z,93436.00
2024-05-09T00:11:33.406Z,93435.00
2024-05-09T00:12:32.298Z,93437.00
2024-05-09T00:13:32.314Z,93436.00
2024-05-09T00:14:32.391Z,93435.00
2024-05-09T00:15:32.333Z,93438.00
2024-05-09T00:16:32.321Z,93438.00
2024-05-09T00:17:32.475Z,93438.00
2024-05-09T00:18:32.442Z,93439.00
2024-05-09T00:19:32.615Z,93438.00
2024-05-09T00:20:37.982Z,93439.00
2024-05-09T00:21:33.617Z,93437.00
2024-05-09T00:22:32.613Z,93438.00
2024-05-09T00:23:32.868Z,93436.00
2024-05-09T00:24:32.648Z,93436.00
2024-05-09T00:25:32.645Z,93437.00
2024-05-09T00:26:32.719Z,93437.00
2024-05-09T00:27:32.661Z,93435.00
2024-05-09T00:28:32.669Z,93433.00
2024-05-09T00:29:32.800Z,93434.00
2024-05-09T00:30:35.788Z,93433.00
2024-05-09T00:31:32.760Z,93431.00
2024-05-09T00:32:32.903Z,93430.00
2024-05-09T00:33:32.880Z,93429.00
2024-05-09T00:34:32.817Z,93428.00
2024-05-09T00:35:32.993Z,93427.00
2024-05-09T00:36:32.821Z,93426.00
2024-05-09T00:37:32.830Z,93426.00
2024-05-09T00:38:33.028Z,93424.00
2024-05-09T00:39:32.864Z,93424.00
2024-05-09T00:40:38.929Z,93424.00
2024-05-09T00:41:34.018Z,93424.00
2024-05-09T00:42:32.894Z,93423.00
2024-05-09T00:43:32.975Z,93426.00
2024-05-09T00:44:32.986Z,93424.00
2024-05-09T00:45:32.897Z,93424.00
2024-05-09T00:46:32.932Z,93425.00
2024-05-09T00:47:33.206Z,93427.00
2024-05-09T00:48:33.282Z,93426.00
2024-05-09T00:49:33.152Z,93426.00
2024-05-09T00:50:36.512Z,93424.00
2024-05-09T00:51:32.952Z,93426.00
2024-05-09T00:52:32.982Z,93424.00
2024-05-09T00:53:33.192Z,93423.00
2024-05-09T00:54:32.973Z,93423.00
2024-05-09T00:55:32.980Z,93425.00
2024-05-09T00:56:33.073Z,93422.00
2024-05-09T00:57:33.024Z,93423.00
2024-05-09T00:58:33.021Z,93424.00
2024-05-09T00:59:33.104Z,93423.00
2024-05-09T01:00:38.717Z,93424.00
2024-05-09T01:01:34.190Z,93423.00
2024-05-09T01:02:33.155Z,93425.00
2024-05-09T01:03:33.327Z,93422.00
2024-05-09T01:04:33.091Z,93422.00
2024-05-09T01:05:33.218Z,93421.00
2024-05-09T01:06:33.064Z,93421.00
2024-05-09T01:07:33.148Z,93420.00
2024-05-09T01:08:33.254Z,93418.00
2024-05-09T01:09:33.151Z,93417.00
2024-05-09T01:10:35.127Z,93416.00
2024-05-09T01:11:33.265Z,93415.00
2024-05-09T01:12:33.307Z,93416.00
2024-05-09T01:13:33.313Z,93416.00
2024-05-09T01:14:33.357Z,93413.00
2024-05-09T01:15:33.342Z,93416.00
2024-05-09T01:16:33.355Z,93413.00
2024-05-09T01:17:33.505Z,93414.00
2024-05-09T01:18:33.476Z,93414.00
2024-05-09T01:19:33.468Z,93413.00
2024-05-09T01:20:41.019Z,93413.00
2024-05-09T01:21:34.424Z,93414.00
2024-05-09T01:22:33.427Z,93412.00
2024-05-09T01:23:33.572Z,93413.00
2024-05-09T01:24:33.495Z,93413.00
2024-05-09T01:25:33.518Z,93411.00
2024-05-09T01:26:33.599Z,93410.00
2024-05-09T01:27:33.535Z,93410.00
2024-05-09T01:28:33.563Z,93409.00
2024-05-09T01:29:33.789Z,93410.00
2024-05-09T01:30:36.464Z,93408.00
2024-05-09T01:31:34.030Z,93410.00
2024-05-09T01:32:34.173Z,93410.00
2024-05-09T01:33:34.082Z,93410.00
2024-05-09T01:34:34.033Z,93410.00
2024-05-09T01:35:34.081Z,93409.00
2024-05-09T01:36:34.041Z,93411.00
2024-05-09T01:37:34.170Z,93411.00
2024-05-09T01:38:34.314Z,93411.00
2024-05-09T01:39:34.202Z,93411.00
2024-05-09T01:40:38.441Z,93409.00
2024-05-09T01:41:35.285Z,93409.00
2024-05-09T01:42:34.267Z,93408.00
2024-05-09T01:43:34.343Z,93409.00
2024-05-09T01:44:34.358Z,93406.00
2024-05-09T01:45:34.317Z,93406.00
2024-05-09T01:46:34.340Z,93408.00
2024-05-09T01:47:34.460Z,93408.00
2024-05-09T01:48:34.422Z,93408.00
2024-05-09T01:49:34.424Z,93407.00
2024-05-09T01:50:39.401Z,93405.00
2024-05-09T01:51:35.439Z,93409.00
2024-05-09T01:52:34.466Z,93408.00
2024-05-09T01:53:34.508Z,93407.00
2024-05-09T01:54:34.519Z,93408.00
2024-05-09T01:55:34.573Z,93409.00
2024-05-09T01:56:34.685Z,93408.00
2024-05-09T01:57:34.534Z,93410.00
2024-05-09T01:58:34.632Z,93411.00
2024-05-09T01:59:34.879Z,93412.00
2024-05-09T02:00:40.040Z,93413.00
2024-05-09T02:01:55.629Z,93414.00
2024-05-09T02:02:36.102Z,93414.00
2024-05-09T02:03:35.205Z,93414.00
2024-05-09T02:04:35.201Z,93412.00
2024-05-09T02:05:35.167Z,93414.00
2024-05-09T02:06:35.077Z,93413.00
2024-05-09T02:07:35.102Z,93415.00
2024-05-09T02:08:35.210Z,93413.00
2024-05-09T02:09:35.135Z,93413.00
2024-05-09T02:10:35.300Z,93413.00
2024-05-09T02:11:35.236Z,93413.00
2024-05-09T02:12:35.202Z,93414.00
2024-05-09T02:13:35.192Z,93414.00
2024-05-09T02:14:35.279Z,93414.00
2024-05-09T02:15:35.224Z,93415.00
2024-05-09T02:16:35.230Z,93415.00
2024-05-09T02:17:35.419Z,93415.00
2024-05-09T02:18:35.298Z,93418.00
2024-05-09T02:19:35.400Z,93416.00
2024-05-09T02:20:36.839Z,93418.00
2024-05-09T02:21:35.397Z,93417.00
2024-05-09T02:22:35.390Z,93417.00
2024-05-09T02:23:35.451Z,93417.00
2024-05-09T02:24:35.405Z,93418.00
2024-05-09T02:25:35.480Z,93419.00
2024-05-09T02:26:35.548Z,93418.00
2024-05-09T02:27:35.508Z,93420.00
2024-05-09T02:28:35.531Z,93417.00
2024-05-09T02:29:35.651Z,93416.00
2024-05-09T02:30:40.187Z,93416.00
2024-05-09T02:31:36.714Z,93417.00
2024-05-09T02:32:35.841Z,93416.00
2024-05-09T02:33:36.001Z,93415.00
2024-05-09T02:34:35.779Z,93414.00
2024-05-09T02:35:35.836Z,93412.00
2024-05-09T02:36:35.772Z,93412.00
2024-05-09T02:37:35.779Z,93413.00
2024-05-09T02:38:35.830Z,93412.00
2024-05-09T02:39:35.790Z,93414.00
2024-05-09T02:40:38.363Z,93415.00
2024-05-09T02:41:35.931Z,93411.00
2024-05-09T02:42:35.861Z,93413.00
2024-05-09T02:43:35.868Z,93411.00
2024-05-09T02:44:35.978Z,93411.00
2024-05-09T02:45:35.928Z,93410.00
2024-05-09T02:46:35.902Z,93410.00
2024-05-09T02:47:36.051Z,93411.00
2024-05-09T02:48:36.096Z,93412.00
2024-05-09T02:49:36.064Z,93409.00
2024-05-09T02:50:39.168Z,93408.00
2024-05-09T02:51:36.059Z,93408.00
2024-05-09T02:52:36.005Z,93405.00
2024-05-09T02:53:36.055Z,93407.00
2024-05-09T02:54:36.026Z,93407.00
2024-05-09T02:55:36.035Z,93405.00
2024-05-09T02:56:36.092Z,93407.00
2024-05-09T02:57:36.049Z,93404.00
2024-05-09T02:58:36.067Z,93405.00
2024-05-09T02:59:36.118Z,93406.00
2024-05-09T03:00:39.647Z,93406.00
2024-05-09T03:01:37.178Z,93408.00
2024-05-09T03:02:36.125Z,93405.00
2024-05-09T03:03:36.370Z,93409.00
2024-05-09T03:04:36.312Z,93407.00
2024-05-09T03:05:36.378Z,93408.00
2024-05-09T03:06:36.187Z,93408.00
2024-05-09T03:07:36.195Z,93408.00
2024-05-09T03:08:36.303Z,93406.00
2024-05-09T03:09:36.196Z,93406.00
2024-05-09T03:10:38.313Z,93406.00
2024-05-09T03:11:36.363Z,93404.00
2024-05-09T03:12:37.965Z,93406.00
2024-05-09T03:13:36.275Z,93405.00
2024-05-09T03:14:36.313Z,93406.00
2024-05-09T03:15:36.353Z,93406.00
2024-05-09T03:16:36.301Z,93407.00
2024-05-09T03:17:36.566Z,93407.00
2024-05-09T03:18:36.356Z,93407.00
2024-05-09T03:19:36.338Z,93408.00
2024-05-09T03:20:37.150Z,93407.00
2024-05-09T03:21:36.321Z,93407.00
2024-05-09T03:22:36.337Z,93408.00
2024-05-09T03:23:36.370Z,93407.00
2024-05-09T03:24:36.351Z,93409.00
2024-05-09T03:25:36.369Z,93410.00
2024-05-09T03:26:36.423Z,93411.00
2024-05-09T03:27:36.380Z,93412.00
2024-05-09T03:28:36.390Z,93414.00
2024-05-09T03:29:36.448Z,93412.00
2024-05-09T03:30:41.385Z,93413.00
2024-05-09T03:31:37.461Z,93412.00
2024-05-09T03:32:36.548Z,93414.00
2024-05-09T03:33:36.768Z,93412.00
2024-05-09T03:34:36.439Z,93415.00
2024-05-09T03:35:36.526Z,93415.00
2024-05-09T03:36:36.457Z,93416.00
2024-05-09T03:37:36.526Z,93416.00
2024-05-09T03:38:36.734Z,93418.00
2024-05-09T03:39:36.903Z,93417.00
2024-05-09T03:40:37.115Z,93416.00
2024-05-09T03:41:37.377Z,93420.00
2024-05-09T03:42:37.522Z,93419.00
2024-05-09T03:43:37.734Z,93420.00
2024-05-09T03:44:37.945Z,93421.00
2024-05-09T03:45:38.138Z,93420.00
2024-05-09T03:46:38.325Z,93419.00
2024-05-09T03:47:38.639Z,93419.00
2024-05-09T03:48:38.772Z,93421.00
2024-05-09T03:49:38.943Z,93419.00
2024-05-09T03:50:39.182Z,93417.00
2024-05-09T03:51:39.275Z,93417.00
2024-05-09T03:52:39.456Z,93417.00
2024-05-09T03:53:39.785Z,93418.00
2024-05-09T03:54:39.853Z,93416.00
2024-05-09T03:55:40.060Z,93418.00
2024-05-09T03:56:40.356Z,93416.00
2024-05-09T03:57:40.457Z,93418.00
2024-05-09T03:58:40.638Z,93419.00
2024-05-09T03:59:40.923Z,93418.00
2024-05-09T04:00:41.194Z,93419.00
2024-05-09T04:01:41.372Z,93417.00
2024-05-09T04:02:41.561Z,93419.00
2024-05-09T04:03:41.787Z,93419.00
2024-05-09T04:04:41.968Z,93420.00
2024-05-09T04:05:43.231Z,93421.00
2024-05-09T04:06:42.158Z,93421.00
2024-05-09T04:07:42.241Z,93422.00
2024-05-09T04:08:42.340Z,93422.00
2024-05-09T04:09:42.390Z,93422.00
2024-05-09T04:10:42.464Z,93421.00
2024-05-09T04:11:42.665Z,93421.00
2024-05-09T04:12:42.613Z,93424.00
2024-05-09T04:13:42.690Z,93421.00
2024-05-09T04:14:42.904Z,93423.00
2024-05-09T04:15:43.052Z,93422.00
2024-05-09T04:16:43.255Z,93422.00
2024-05-09T04:17:43.688Z,93421.00
2024-05-09T04:18:43.762Z,93421.00
2024-05-09T04:19:43.892Z,93424.00
2024-05-09T04:20:44.058Z,93425.00
2024-05-09T04:21:44.234Z,93426.00
2024-05-09T04:22:44.484Z,93426.00
2024-05-09T04:23:44.686Z,93428.00
2024-05-09T04:24:44.838Z,93430.00
2024-05-09T04:25:45.729Z,93431.00
2024-05-09T04:26:45.104Z,93431.00
2024-05-09T04:27:45.179Z,93432.00
2024-05-09T04:28:45.269Z,93434.00
2024-05-09T04:29:45.317Z,93435.00
2024-05-09T04:30:45.414Z,93434.00
2024-05-09T04:31:45.441Z,93435.00
2024-05-09T04:32:45.594Z,93435.00
2024-05-09T04:33:53.646Z,93437.00
2024-05-09T04:34:53.640Z,93436.00
2024-05-09T04:35:53.746Z,93436.00
2024-05-09T04:36:53.967Z,93437.00
2024-05-09T04:37:54.132Z,93435.00
2024-05-09T04:38:54.153Z,93437.00
2024-05-09T04:39:54.290Z,93435.00
2024-05-09T04:40:54.573Z,93439.00
2024-05-09T04:41:54.642Z,93437.00
2024-05-09T04:42:54.780Z,93439.00
2024-05-09T04:43:54.985Z,93438.00
2024-05-09T04:44:58.258Z,93442.00
2024-05-09T04:45:55.110Z,93442.00
2024-05-09T04:46:55.130Z,93444.00
2024-05-09T04:47:55.338Z,93444.00
2024-05-09T04:48:55.224Z,93444.00
2024-05-09T04:49:55.179Z,93444.00
2024-05-09T04:50:55.185Z,93443.00
2024-05-09T04:51:55.175Z,93440.00
2024-05-09T04:52:55.211Z,93438.00
2024-05-09T04:53:55.212Z,93437.00
2024-05-09T04:54:56.902Z,93436.00
2024-05-09T04:55:55.296Z,93435.00
2024-05-09T04:56:56.003Z,93434.00
2024-05-09T04:57:55.250Z,93434.00
2024-05-09T04:58:55.303Z,93433.00
2024-05-09T04:59:55.303Z,93433.00
2024-05-09T05:00:55.320Z,93435.00
2024-05-09T05:01:55.379Z,93436.00
2024-05-09T05:02:55.492Z,93436.00
2024-05-09T05:03:56.137Z,93436.00
2024-05-09T05:04:55.432Z,93439.00
2024-05-09T05:05:55.436Z,93439.00
2024-05-09T05:06:56.020Z,93442.00
2024-05-09T05:07:55.383Z,93441.00
2024-05-09T05:08:55.367Z,93442.00
2024-05-09T05:09:55.361Z,93442.00
2024-05-09T05:10:55.526Z,93442.00
2024-05-09T05:11:55.749Z,93444.00
2024-05-09T05:12:55.420Z,93443.00
2024-05-09T05:13:55.489Z,93443.00
2024-05-09T05:14:55.466Z,93446.00
2024-05-09T05:15:55.923Z,93446.00
2024-05-09T05:16:55.484Z,93445.00
2024-05-09T05:17:55.702Z,93446.00
2024-05-09T05:18:55.649Z,93446.00
2024-05-09T05:19:55.724Z,93444.00
2024-05-09T05:20:55.724Z,93444.00
2024-05-09T05:21:55.554Z,93446.00
2024-05-09T05:22:55.633Z,93445.00
2024-05-09T05:23:55.627Z,93444.00
2024-05-09T05:24:55.670Z,93446.00
2024-05-09T05:25:55.977Z,93446.00
2024-05-09T05:26:55.809Z,93445.00
2024-05-09T05:27:55.915Z,93447.00
2024-05-09T05:28:56.007Z,93447.00
2024-05-09T05:29:56.071Z,93448.00
2024-05-09T05:30:56.194Z,93449.00
2024-05-09T05:31:56.185Z,93449.00
2024-05-09T05:32:56.370Z,93449.00
2024-05-09T05:33:56.503Z,93449.00
2024-05-09T05:34:56.653Z,93450.00
2024-05-09T05:35:56.792Z,93452.00
2024-05-09T05:36:56.959Z,93451.00
2024-05-09T05:37:57.180Z,93451.00
2024-05-09T05:38:57.356Z,93454.00
2024-05-09T05:39:57.465Z,93454.00
2024-05-09T05:40:57.683Z,93454.00
2024-05-09T05:41:57.791Z,93453.00
2024-05-09T05:42:57.988Z,93453.00
2024-05-09T05:43:58.205Z,93451.00
2024-05-09T05:44:58.318Z,93453.00
2024-05-09T05:45:58.502Z,93450.00
2024-05-09T05:46:58.682Z,93451.00
2024-05-09T05:47:59.026Z,93449.00
2024-05-09T05:48:59.164Z,93450.00
2024-05-09T05:49:59.246Z,93449.00
2024-05-09T05:51:01.934Z,93450.00
2024-05-09T05:51:59.418Z,93448.00
2024-05-09T05:52:59.452Z,93447.00
2024-05-09T05:53:59.437Z,93450.00
2024-05-09T05:54:59.449Z,93450.00
2024-05-09T05:55:59.483Z,93450.00
2024-05-09T05:56:59.620Z,93450.00
2024-05-09T05:57:59.478Z,93450.00
2024-05-09T05:58:59.538Z,93450.00
2024-05-09T05:59:59.459Z,93451.00
2024-05-09T06:00:59.495Z,93452.00
2024-05-09T06:01:59.505Z,93450.00
2024-05-09T06:02:59.597Z,93451.00
2024-05-09T06:03:59.648Z,93451.00
2024-05-09T06:04:59.551Z,93455.00
2024-05-09T06:05:59.659Z,93454.00
2024-05-09T06:06:59.500Z,93455.00
2024-05-09T06:07:59.583Z,93456.00
2024-05-09T06:08:59.499Z,93455.00
2024-05-09T06:09:59.509Z,93457.00
2024-05-09T06:10:59.629Z,93457.00
2024-05-09T06:11:59.625Z,93457.00
2024-05-09T06:12:59.632Z,93459.00
2024-05-09T06:13:59.708Z,93458.00
2024-05-09T06:14:59.714Z,93456.00
2024-05-09T06:15:59.761Z,93458.00
2024-05-09T06:16:59.820Z,93457.00
2024-05-09T06:18:00.097Z,93456.00
2024-05-09T06:18:59.983Z,93455.00
2024-05-09T06:19:59.978Z,93453.00
2024-05-09T06:21:00.091Z,93454.00
2024-05-09T06:22:00.164Z,93452.00
2024-05-09T06:23:00.378Z,93452.00
2024-05-09T06:24:02.512Z,93453.00
2024-05-09T06:25:00.502Z,93451.00
2024-05-09T06:26:00.530Z,93453.00
2024-05-09T06:27:00.475Z,93450.00
2024-05-09T06:28:00.624Z,93449.00
2024-05-09T06:29:00.546Z,93444.00
2024-05-09T06:30:00.513Z,93445.00
2024-05-09T06:31:00.514Z,93442.00
2024-05-09T06:32:00.693Z,93444.00
2024-05-09T06:33:00.720Z,93441.00
2024-05-09T06:34:00.653Z,93441.00
2024-05-09T06:35:00.547Z,93440.00
2024-05-09T06:36:00.488Z,93443.00
2024-05-09T06:37:00.499Z,93444.00
2024-05-09T06:38:00.534Z,93442.00
2024-05-09T06:39:00.482Z,93445.00
2024-05-09T06:40:00.468Z,93445.00
2024-05-09T06:41:00.525Z,93446.00
2024-05-09T06:42:00.466Z,93444.00
2024-05-09T06:43:00.586Z,93445.00
2024-05-09T06:44:00.642Z,93444.00
2024-05-09T06:45:00.598Z,93447.00
2024-05-09T06:46:00.546Z,93447.00
2024-05-09T06:47:00.654Z,93448.00
2024-05-09T06:48:00.790Z,93447.00
2024-05-09T06:49:00.605Z,93447.00
2024-05-09T06:50:00.624Z,93450.00
2024-05-09T06:51:00.578Z,93449.00
2024-05-09T06:52:00.487Z,93448.00
2024-05-09T06:53:00.638Z,93451.00
2024-05-09T06:54:00.496Z,93447.00
2024-05-09T06:55:00.488Z,93447.00
2024-05-09T06:56:00.509Z,93446.00
2024-05-09T06:57:00.489Z,93448.00
2024-05-09T06:58:00.484Z,93447.00
2024-05-09T06:59:00.628Z,93446.00
2024-05-09T07:00:00.450Z,93447.00
2024-05-09T07:01:00.462Z,93445.00
2024-05-09T07:02:00.462Z,93445.00
2024-05-09T07:03:03.502Z,93444.00
2024-05-09T07:04:00.434Z,93445.00
2024-05-09T07:05:00.519Z,93441.00
2024-05-09T07:06:00.422Z,93442.00
2024-05-09T07:07:00.388Z,93440.00
2024-05-09T07:08:00.436Z,93440.00
2024-05-09T07:09:00.359Z,93440.00
2024-05-09T07:10:00.353Z,93442.00
2024-05-09T07:11:00.487Z,93440.00
2024-05-09T07:12:00.396Z,93441.00
2024-05-09T07:13:00.346Z,93443.00
2024-05-09T07:14:00.351Z,93440.00
2024-05-09T07:15:00.328Z,93442.00
2024-05-09T07:16:00.341Z,93440.00
2024-05-09T07:17:00.353Z,93443.00
2024-05-09T07:18:00.443Z,93441.00
2024-05-09T07:19:00.498Z,93444.00
2024-05-09T07:20:00.471Z,93441.00
2024-05-09T07:21:00.273Z,93441.00
2024-05-09T07:22:00.254Z,93441.00
2024-05-09T07:23:00.289Z,93440.00
2024-05-09T07:24:00.246Z,93440.00
2024-05-09T07:25:00.202Z,93443.00
2024-05-09T07:26:00.237Z,93443.00
2024-05-09T07:27:00.154Z,93442.00
2024-05-09T07:28:00.160Z,93440.00
2024-05-09T07:29:00.134Z,93439.00
2024-05-09T07:30:00.143Z,93438.00
2024-05-09T07:31:00.090Z,93438.00
2024-05-09T07:32:00.195Z,93437.00
2024-05-09T07:33:00.605Z,93437.00
2024-05-09T07:34:00.524Z,93434.00
2024-05-09T07:35:00.260Z,93436.00
2024-05-09T07:36:00.265Z,93432.00
2024-05-09T07:37:00.308Z,93434.00
2024-05-09T07:38:00.408Z,93435.00
2024-05-09T07:39:00.386Z,93430.00
2024-05-09T07:40:00.464Z,93432.00
2024-05-09T07:41:00.520Z,93431.00
2024-05-09T07:42:00.399Z,93432.00
2024-05-09T07:43:00.418Z,93432.00
2024-05-09T07:44:00.471Z,93434.00
2024-05-09T07:45:20.540Z,93432.00
2024-05-09T07:46:48.260Z,93431.00
2024-05-09T07:51:48.223Z,93427.00
2024-05-09T07:53:07.623Z,93426.00
2024-05-09T07:53:24.937Z,93424.00
2024-05-09T07:53:35.948Z,93426.00
2024-05-09T07:54:01.897Z,93425.00
2024-05-09T07:55:00.599Z,93426.00
2024-05-09T07:56:00.369Z,93425.00
2024-05-09T07:57:00.317Z,93422.00
2024-05-09T07:58:00.182Z,93422.00
2024-05-09T07:59:00.129Z,93422.00
2024-05-09T08:00:00.185Z,93419.00
2024-05-09T08:01:00.279Z,93418.00
2024-05-09T08:02:00.573Z,93418.00
2024-05-09T08:03:01.439Z,93415.00
2024-05-09T08:04:00.388Z,93417.00
2024-05-09T08:05:00.361Z,93415.00
2024-05-09T08:06:00.156Z,93416.00
2024-05-09T08:07:00.120Z,93415.00
2024-05-09T08:08:00.103Z,93416.00
2024-05-09T08:09:03.101Z,93418.00
2024-05-09T08:10:01.039Z,93418.00
2024-05-09T08:10:59.959Z,93415.00
2024-05-09T08:11:59.952Z,93416.00
2024-05-09T08:12:59.996Z,93417.00
2024-05-09T08:13:59.926Z,93417.00
2024-05-09T08:14:59.912Z,93415.00
2024-05-09T08:15:59.964Z,93411.00
2024-05-09T08:16:59.910Z,93410.00
2024-05-09T08:18:00.075Z,93411.00
2024-05-09T08:19:00.001Z,93408.00
2024-05-09T08:20:00.356Z,93406.00
2024-05-09T08:20:59.759Z,93403.00
2024-05-09T08:21:59.724Z,93403.00
2024-05-09T08:22:59.700Z,93403.00
2024-05-09T08:24:00.574Z,93404.00
2024-05-09T08:24:59.681Z,93404.00
2024-05-09T08:25:59.625Z,93405.00
2024-05-09T08:26:59.613Z,93403.00
2024-05-09T08:27:59.636Z,93401.00
2024-05-09T08:28:59.581Z,93399.00
2024-05-09T08:29:59.586Z,93398.00
2024-05-09T08:31:01.628Z,93399.00
2024-05-09T08:31:59.647Z,93398.00
2024-05-09T08:32:59.638Z,93401.00
2024-05-09T08:33:59.715Z,93399.00
2024-05-09T08:34:59.558Z,93399.00
2024-05-09T08:35:59.488Z,93401.00
2024-05-09T08:37:03.927Z,93400.00
2024-05-09T08:38:00.471Z,93398.00
2024-05-09T08:38:59.385Z,93397.00
2024-05-09T08:39:59.363Z,93399.00
2024-05-09T08:40:59.344Z,93397.00
2024-05-09T08:41:59.306Z,93396.00
2024-05-09T08:42:59.310Z,93394.00
2024-05-09T08:43:59.263Z,93394.00
2024-05-09T08:44:59.219Z,93390.00
2024-05-09T08:45:59.224Z,93390.00
2024-05-09T08:46:59.115Z,93391.00
2024-05-09T08:47:59.234Z,93389.00
2024-05-09T08:48:59.145Z,93390.00
2024-05-09T08:49:59.036Z,93384.00
2024-05-09T08:50:58.965Z,93383.00
2024-05-09T08:51:58.921Z,93384.00
2024-05-09T08:52:58.850Z,93384.00
2024-05-09T08:53:58.800Z,93384.00
2024-05-09T08:54:58.789Z,93383.00
2024-05-09T08:55:58.723Z,93385.00
2024-05-09T08:56:58.697Z,93381.00
2024-05-09T08:57:58.705Z,93380.00
2024-05-09T08:58:58.651Z,93381.00
2024-05-09T08:59:58.644Z,93379.00
2024-05-09T09:00:58.679Z,93378.00
2024-05-09T09:01:58.657Z,93377.00
2024-05-09T09:02:58.588Z,93377.00
2024-05-09T09:03:58.659Z,93375.00
2024-05-09T09:04:58.525Z,93378.00
2024-05-09T09:05:58.458Z,93376.00
2024-05-09T09:06:59.760Z,93377.00
2024-05-09T09:07:58.435Z,93376.00
2024-05-09T09:08:58.445Z,93375.00
2024-05-09T09:09:58.482Z,93379.00
2024-05-09T09:10:58.476Z,93376.00
2024-05-09T09:11:58.486Z,93377.00
2024-05-09T09:12:58.506Z,93377.00
2024-05-09T09:13:58.507Z,93377.00
2024-05-09T09:14:58.557Z,93377.00
2024-05-09T09:15:59.259Z,93377.00
2024-05-09T09:16:58.547Z,93376.00
2024-05-09T09:17:58.663Z,93375.00
2024-05-09T09:18:58.557Z,93373.00
2024-05-09T09:19:58.524Z,93374.00
2024-05-09T09:20:58.485Z,93373.00
2024-05-09T09:21:58.499Z,93371.00
2024-05-09T09:22:58.436Z,93374.00
2024-05-09T09:23:58.472Z,93372.00
2024-05-09T09:24:58.475Z,93372.00
2024-05-09T09:25:58.488Z,93373.00
2024-05-09T09:26:58.463Z,93369.00
2024-05-09T09:27:58.724Z,93368.00
2024-05-09T09:28:58.479Z,93370.00
2024-05-09T09:29:58.504Z,93368.00
2024-05-09T09:30:58.517Z,93368.00
2024-05-09T09:31:58.489Z,93364.00
2024-05-09T09:32:58.589Z,93363.00
2024-05-09T09:33:58.585Z,93363.00
2024-05-09T09:34:58.497Z,93364.00
2024-05-09T09:35:58.473Z,93366.00
2024-05-09T09:36:58.517Z,93362.00
2024-05-09T09:37:58.446Z,93360.00
2024-05-09T09:38:58.458Z,93359.00
2024-05-09T09:39:58.424Z,93359.00
2024-05-09T09:40:58.465Z,93357.00
2024-05-09T09:41:58.329Z,93356.00
2024-05-09T09:42:58.386Z,93355.00
2024-05-09T09:43:58.272Z,93352.00
2024-05-09T09:45:04.661Z,93350.00
2024-05-09T09:45:59.194Z,93346.00
2024-05-09T09:46:58.211Z,93348.00
2024-05-09T09:47:58.164Z,93345.00
2024-05-09T09:48:58.144Z,93344.00
2024-05-09T09:49:57.995Z,93343.00
2024-05-09T09:50:57.934Z,93341.00
2024-05-09T09:51:57.878Z,93340.00
2024-05-09T09:52:57.819Z,93340.00
2024-05-09T09:53:57.808Z,93339.00
2024-05-09T09:54:57.846Z,93340.00
2024-05-09T09:55:57.799Z,93342.00
2024-05-09T09:56:57.813Z,93337.00
2024-05-09T09:57:57.826Z,93334.00
2024-05-09T09:58:57.745Z,93332.00
2024-05-09T09:59:57.736Z,93333.00
2024-05-09T10:00:57.848Z,93333.00
2024-05-09T10:01:57.803Z,93328.00
2024-05-09T10:02:57.727Z,93327.00
2024-05-09T10:03:57.701Z,93328.00
2024-05-09T10:04:57.688Z,93326.00
2024-05-09T10:05:57.706Z,93324.00
2024-05-09T10:06:57.690Z,93326.00
2024-05-09T10:07:57.628Z,93326.00
2024-05-09T10:08:57.612Z,93328.00
2024-05-09T10:09:57.642Z,93324.00
2024-05-09T10:10:57.753Z,93325.00
2024-05-09T10:12:57.642Z,93320.00
2024-05-09T10:13:57.554Z,93321.00
2024-05-09T10:14:57.456Z,93322.00
2024-05-09T10:15:57.440Z,93320.00
2024-05-09T10:16:57.332Z,93320.00
2024-05-09T10:17:57.361Z,93318.00
2024-05-09T10:18:57.402Z,93320.00
2024-05-09T10:19:57.362Z,93316.00
2024-05-09T10:20:57.279Z,93315.00
2024-05-09T10:21:57.323Z,93317.00
2024-05-09T10:22:57.230Z,93318.00
2024-05-09T10:23:57.240Z,93318.00
2024-05-09T10:24:57.326Z,93311.00
2024-05-09T10:25:57.233Z,93309.00
2024-05-09T10:26:57.211Z,93308.00
2024-05-09T10:27:57.217Z,93305.00
2024-05-09T10:28:57.182Z,93305.00
2024-05-09T10:29:57.232Z,93307.00
2024-05-09T10:30:57.245Z,93305.00
2024-05-09T10:31:57.148Z,93302.00
2024-05-09T10:32:57.166Z,93298.00
2024-05-09T10:33:57.204Z,93298.00
2024-05-09T10:34:57.152Z,93298.00
2024-05-09T10:35:57.059Z,93297.00
2024-05-09T10:36:57.117Z,93293.00
2024-05-09T10:37:57.025Z,93294.00
2024-05-09T10:38:57.022Z,93296.00
2024-05-09T10:39:57.054Z,93295.00
2024-05-09T10:40:57.022Z,93294.00
2024-05-09T10:41:57.012Z,93294.00
2024-05-09T10:42:57.202Z,93289.00
2024-05-09T10:43:56.975Z,93290.00
2024-05-09T10:44:56.970Z,93290.00
2024-05-09T10:45:56.974Z,93291.00
2024-05-09T10:46:57.949Z,93292.00
2024-05-09T10:47:56.951Z,93287.00
2024-05-09T10:48:56.858Z,93290.00
2024-05-09T10:49:56.711Z,93289.00
2024-05-09T10:50:56.602Z,93290.00
2024-05-09T10:51:56.612Z,93286.00
2024-05-09T10:52:56.448Z,93287.00
2024-05-09T10:53:56.390Z,93287.00
2024-05-09T10:54:56.311Z,93284.00
2024-05-09T10:55:56.195Z,93284.00
2024-05-09T10:56:56.149Z,93284.00
2024-05-09T10:57:56.106Z,93284.00
2024-05-09T10:58:55.992Z,93280.00
2024-05-09T10:59:55.866Z,93277.00
2024-05-09T11:00:55.953Z,93272.00
2024-05-09T11:01:55.823Z,93271.00
2024-05-09T11:02:55.701Z,93270.00
2024-05-09T11:03:55.757Z,93271.00
2024-05-09T11:04:55.766Z,93273.00
2024-05-09T11:05:55.657Z,93271.00
2024-05-09T11:06:55.565Z,93273.00
2024-05-09T11:07:55.460Z,93272.00
2024-05-09T11:08:55.456Z,93270.00
2024-05-09T11:09:55.485Z,93269.00
2024-05-09T11:10:55.524Z,93266.00
2024-05-09T11:11:55.483Z,93265.00
2024-05-09T11:12:55.486Z,93264.00
2024-05-09T11:13:55.439Z,93262.00
2024-05-09T11:14:55.398Z,93262.00
2024-05-09T11:15:55.461Z,93260.00
2024-05-09T11:16:55.534Z,93262.00
2024-05-09T11:17:55.779Z,93262.00
2024-05-09T11:18:56.296Z,93258.00
2024-05-09T11:19:55.804Z,93260.00
2024-05-09T11:20:55.740Z,93260.00
2024-05-09T11:21:55.732Z,93261.00
2024-05-09T11:22:55.628Z,93259.00
2024-05-09T11:23:55.637Z,93259.00
2024-05-09T11:24:55.825Z,93260.00
2024-05-09T11:25:55.833Z,93259.00
2024-05-09T11:26:55.969Z,93262.00
2024-05-09T11:27:56.123Z,93260.00
2024-05-09T11:28:56.219Z,93257.00
2024-05-09T11:29:56.332Z,93257.00
2024-05-09T11:30:56.477Z,93256.00
2024-05-09T11:31:56.624Z,93257.00
2024-05-09T11:32:56.975Z,93255.00
2024-05-09T11:33:57.182Z,93253.00
2024-05-09T11:34:57.125Z,93254.00
2024-05-09T11:35:57.284Z,93253.00
2024-05-09T11:36:57.432Z,93252.00
2024-05-09T11:37:57.530Z,93252.00
2024-05-09T11:38:57.691Z,93251.00
2024-05-09T11:39:57.850Z,93250.00
2024-05-09T11:40:57.998Z,93250.00
2024-05-09T11:41:58.163Z,93247.00
2024-05-09T11:42:58.338Z,93246.00
2024-05-09T11:43:58.460Z,93245.00
2024-05-09T11:44:58.600Z,93242.00
2024-05-09T11:45:58.822Z,93240.00
2024-05-09T11:46:58.874Z,93239.00
2024-05-09T11:47:59.120Z,93240.00
2024-05-09T11:48:59.326Z,93238.00
2024-05-09T11:49:59.510Z,93237.00